Time;durP1;ratioP1;P1;durP2;ratioP2;P2;SDS_P1;SDS_P2;PMS_P1;PMS_P2;Temp;Humidity;BMP_temperature;BMP_pressure;BME280_temperature;BME280_humidity;BME280_pressure;Samples;Min_cycle;Max_cycle;Signal;HPM_P1;HPM_P2
2021/10/12 00:00:59;;;;;;;311.90;292.10;;;12.10;99.90;;;;;;5055845;28;20196;-82
2021/10/12 00:03:25;;;;;;;303.27;283.23;;;12.10;99.90;;;;;;5055941;28;20172;-82
2021/10/12 00:05:51;;;;;;;271.50;253.83;;;12.00;99.90;;;;;;5056179;28;20653;-82
2021/10/12 00:08:17;;;;;;;301.10;281.83;;;12.00;99.90;;;;;;5056121;28;20180;-82
2021/10/12 00:10:42;;;;;;;285.63;267.80;;;12.00;99.90;;;;;;5054954;28;20533;-82
2021/10/12 00:13:08;;;;;;;305.27;285.77;;;12.00;99.90;;;;;;5058776;28;20202;-82
2021/10/12 00:15:34;;;;;;;287.10;268.17;;;12.00;99.90;;;;;;5059060;28;20175;-82
2021/10/12 00:17:59;;;;;;;283.57;265.40;;;12.00;99.90;;;;;;5060163;28;20180;-81
2021/10/12 00:20:25;;;;;;;275.60;257.80;;;12.00;99.90;;;;;;5060255;28;20527;-80
2021/10/12 00:23:17;;;;;;;292.23;274.03;;;12.00;99.90;;;;;;5059769;28;20237;-81
2021/10/12 00:29:57;;;;;;;293.40;275.55;;;12.00;99.90;;;;;;5047006;28;20175;-81
2021/10/12 00:32:23;;;;;;;259.85;243.02;;;12.00;99.90;;;;;;5059318;28;20215;-81
2021/10/12 00:34:49;;;;;;;282.70;264.77;;;11.90;99.90;;;;;;5058000;28;20530;-81
2021/10/12 00:37:15;;;;;;;242.90;226.03;;;11.90;99.90;;;;;;5059911;28;20180;-81
2021/10/12 00:39:41;;;;;;;285.50;268.23;;;11.90;99.90;;;;;;5057886;28;20168;-81
2021/10/12 00:42:07;;;;;;;291.10;273.10;;;11.90;99.90;;;;;;5057620;28;20168;-81
2021/10/12 00:44:33;;;;;;;279.83;262.47;;;11.90;99.90;;;;;;5058325;28;20168;-81
2021/10/12 00:46:59;;;;;;;268.08;250.70;;;11.90;99.90;;;;;;5059340;28;20179;-81
2021/10/12 00:49:25;;;;;;;312.40;293.60;;;11.90;99.90;;;;;;5057746;28;20216;-81
2021/10/12 00:51:51;;;;;;;249.00;232.20;;;11.90;99.90;;;;;;5057574;28;20235;-81
2021/10/12 00:54:18;;;;;;;280.73;262.90;;;11.90;99.90;;;;;;5041276;28;20199;-81
2021/10/12 00:56:44;;;;;;;270.10;252.98;;;11.90;99.90;;;;;;5059435;28;20429;-81
2021/10/12 00:59:09;;;;;;;278.07;260.23;;;11.90;99.90;;;;;;5058836;28;20185;-81
2021/10/12 01:01:37;;;;;;;297.87;279.57;;;11.90;99.90;;;;;;5057574;28;20410;-81
2021/10/12 01:04:04;;;;;;;279.23;261.35;;;11.90;99.90;;;;;;5057765;28;20176;-81
2021/10/12 01:06:30;;;;;;;293.17;275.00;;;11.90;99.90;;;;;;5229295;22;20253;-82
2021/10/12 01:08:55;;;;;;;280.13;262.20;;;11.80;99.90;;;;;;5058707;28;20551;-83
2021/10/12 01:11:21;;;;;;;298.47;280.27;;;11.90;99.90;;;;;;5058617;28;20199;-82
2021/10/12 01:13:50;;;;;;;285.60;267.80;;;11.90;99.90;;;;;;5057488;28;20232;-83
2021/10/12 01:16:18;;;;;;;295.88;276.60;;;11.90;99.90;;;;;;5058397;28;20164;-82
2021/10/12 01:19:03;;;;;;;267.98;250.15;;;11.80;99.90;;;;;;5057894;28;20180;-82
2021/10/12 01:21:36;;;;;;;282.25;263.75;;;11.90;99.90;;;;;;5057701;28;20157;-82
2021/10/12 01:24:02;;;;;;;303.85;285.52;;;11.90;99.90;;;;;;5057506;28;20149;-82
2021/10/12 01:26:28;;;;;;;345.73;324.60;;;11.90;99.90;;;;;;5056322;28;20662;-81
2021/10/12 01:28:53;;;;;;;300.63;281.63;;;11.80;99.90;;;;;;5057619;28;20431;-81
2021/10/12 01:31:22;;;;;;;362.23;340.37;;;11.80;99.90;;;;;;5057730;28;20192;-82
2021/10/12 01:33:48;;;;;;;367.27;345.30;;;11.80;99.90;;;;;;5057534;28;20160;-81
2021/10/12 01:36:14;;;;;;;324.60;304.97;;;11.80;99.90;;;;;;5057830;28;20702;-81
2021/10/12 01:38:41;;;;;;;337.23;316.23;;;11.80;99.90;;;;;;5057952;28;20822;-81
2021/10/12 01:41:06;;;;;;;371.27;349.40;;;11.80;99.90;;;;;;5058699;28;20181;-82
2021/10/12 01:43:32;;;;;;;346.93;326.53;;;11.80;99.90;;;;;;5058743;28;20243;-83
2021/10/12 01:46:02;;;;;;;377.23;355.93;;;11.80;99.90;;;;;;5059108;28;20699;-83
2021/10/12 01:48:28;;;;;;;342.00;321.77;;;11.80;99.90;;;;;;5058123;28;20671;-83
2021/10/12 01:50:53;;;;;;;405.17;382.53;;;11.80;99.90;;;;;;5059264;28;20185;-83
2021/10/12 01:53:19;;;;;;;377.33;355.60;;;11.80;99.90;;;;;;5121014;22;20485;-83
2021/10/12 01:55:45;;;;;;;375.53;354.13;;;11.80;99.90;;;;;;5145757;22;20235;-83
2021/10/12 01:58:11;;;;;;;391.83;369.20;;;11.80;99.90;;;;;;5058500;28;20172;-82
2021/10/12 02:00:37;;;;;;;415.67;391.80;;;11.80;99.90;;;;;;5059015;28;20175;-82
2021/10/12 02:03:02;;;;;;;418.75;395.08;;;11.70;99.90;;;;;;5059288;28;20168;-82
2021/10/12 02:05:28;;;;;;;424.97;400.97;;;11.70;99.90;;;;;;5040158;28;20636;-82
2021/10/12 02:07:54;;;;;;;473.20;446.53;;;11.70;99.90;;;;;;5057750;28;20185;-81
2021/10/12 02:10:20;;;;;;;422.17;398.43;;;11.70;99.90;;;;;;5039846;28;20518;-82
2021/10/12 02:12:48;;;;;;;409.70;386.80;;;11.70;99.90;;;;;;5057617;28;20161;-82
2021/10/12 02:15:14;;;;;;;427.30;402.67;;;11.70;99.90;;;;;;5058027;28;20403;-81
2021/10/12 02:17:40;;;;;;;455.30;430.23;;;11.70;99.90;;;;;;5058148;28;20188;-81
2021/10/12 02:20:07;;;;;;;413.00;389.67;;;11.70;99.90;;;;;;5057689;28;20635;-82
2021/10/12 02:22:33;;;;;;;434.27;409.33;;;11.80;99.90;;;;;;5058344;28;20403;-82
2021/10/12 02:24:59;;;;;;;448.03;423.13;;;11.80;99.90;;;;;;5057275;28;20196;-81
2021/10/12 02:27:25;;;;;;;450.30;425.53;;;11.70;99.90;;;;;;5057442;28;20434;-81
2021/10/12 02:29:51;;;;;;;469.17;443.63;;;11.70;99.90;;;;;;5039117;28;20179;-81
2021/10/12 02:32:18;;;;;;;451.77;426.73;;;11.70;99.90;;;;;;5057169;28;20192;-81
2021/10/12 02:34:43;;;;;;;448.98;424.75;;;11.70;99.90;;;;;;5056389;28;20688;-81
2021/10/12 02:37:09;;;;;;;459.63;434.63;;;11.70;99.90;;;;;;5056822;28;20268;-81
2021/10/12 02:39:35;;;;;;;462.27;437.57;;;11.70;99.90;;;;;;5056649;28;20165;-81
2021/10/12 02:42:01;;;;;;;490.43;464.23;;;11.70;99.90;;;;;;5057026;28;20168;-81
2021/10/12 02:44:26;;;;;;;448.60;423.90;;;11.70;99.90;;;;;;5056604;28;20168;-81
2021/10/12 02:46:52;;;;;;;458.07;433.27;;;11.70;99.90;;;;;;5038966;28;20311;-80
2021/10/12 02:49:18;;;;;;;475.30;449.43;;;11.70;99.90;;;;;;5038947;28;20264;-81
2021/10/12 02:51:43;;;;;;;474.97;448.97;;;11.70;99.90;;;;;;5039130;28;20196;-81
2021/10/12 02:54:09;;;;;;;442.33;418.17;;;11.70;99.90;;;;;;5038951;28;20226;-81
2021/10/12 02:56:35;;;;;;;400.23;378.00;;;11.60;99.90;;;;;;5057178;28;20571;-81
2021/10/12 02:59:01;;;;;;;421.70;398.58;;;11.60;99.90;;;;;;5056392;28;20180;-81
2021/10/12 03:01:26;;;;;;;428.23;404.57;;;11.60;99.90;;;;;;5057348;28;20168;-81
2021/10/12 03:03:52;;;;;;;421.53;398.33;;;11.60;99.90;;;;;;5057027;28;20172;-81
2021/10/12 03:06:18;;;;;;;422.63;399.47;;;11.50;99.90;;;;;;5057180;28;20164;-81
2021/10/12 03:08:43;;;;;;;432.70;409.33;;;11.50;99.90;;;;;;5056603;28;20210;-81
2021/10/12 03:11:10;;;;;;;418.30;394.60;;;11.50;99.90;;;;;;5056972;28;20195;-81
2021/10/12 03:13:35;;;;;;;412.08;388.60;;;11.50;99.90;;;;;;5056845;28;20160;-81
2021/10/12 03:16:01;;;;;;;400.20;377.50;;;11.50;99.90;;;;;;5056597;28;20176;-82
2021/10/12 03:18:30;;;;;;;484.10;457.57;;;11.60;99.90;;;;;;5056154;28;20223;-81
2021/10/12 03:20:56;;;;;;;429.65;405.65;;;11.60;99.90;;;;;;5055857;28;20400;-81
2021/10/12 03:23:21;;;;;;;457.30;431.93;;;11.60;99.90;;;;;;5056103;28;20168;-81
2021/10/12 03:25:47;;;;;;;435.03;410.60;;;11.60;99.90;;;;;;5056116;28;20690;-81
2021/10/12 03:28:13;;;;;;;396.87;373.90;;;11.50;99.90;;;;;;5056261;28;20215;-81
2021/10/12 03:30:39;;;;;;;361.67;340.53;;;11.40;99.90;;;;;;5055968;28;20671;-81
2021/10/12 03:33:05;;;;;;;344.87;324.37;;;11.40;99.90;;;;;;5055836;28;20513;-81
2021/10/12 03:35:34;;;;;;;328.42;308.20;;;11.40;99.90;;;;;;5038157;28;20175;-81
2021/10/12 03:38:00;;;;;;;338.05;317.70;;;11.30;99.90;;;;;;5037841;28;20184;-81
2021/10/12 03:40:27;;;;;;;386.60;364.63;;;11.40;99.90;;;;;;5037884;28;20168;-81
2021/10/12 03:42:52;;;;;;;376.92;355.50;;;11.50;99.90;;;;;;5055423;28;20172;-81
2021/10/12 03:45:18;;;;;;;395.60;371.87;;;11.40;99.90;;;;;;5055991;28;20164;-81
2021/10/12 03:47:44;;;;;;;431.40;407.55;;;11.50;99.90;;;;;;5055611;28;20177;-81
2021/10/12 03:50:10;;;;;;;401.47;377.97;;;11.50;99.90;;;;;;5055912;28;20662;-81
2021/10/12 03:52:36;;;;;;;412.07;389.37;;;11.50;99.90;;;;;;5055568;28;20454;-81
2021/10/12 03:55:02;;;;;;;383.03;360.90;;;11.60;99.90;;;;;;5037867;28;20505;-81
2021/10/12 03:57:28;;;;;;;406.65;383.40;;;11.50;99.90;;;;;;5055809;28;20191;-82
2021/10/12 03:59:54;;;;;;;389.27;366.87;;;11.50;99.90;;;;;;5055878;28;20221;-81
2021/10/12 04:02:19;;;;;;;413.27;390.53;;;11.50;99.90;;;;;;5038649;28;20184;-81
2021/10/12 04:04:45;;;;;;;391.83;369.60;;;11.50;99.90;;;;;;5055413;28;20624;-81
2021/10/12 04:07:11;;;;;;;375.90;354.33;;;11.50;99.90;;;;;;5056204;28;20261;-81
2021/10/12 04:09:37;;;;;;;385.37;363.57;;;11.50;99.90;;;;;;5038006;28;20176;-82
2021/10/12 04:12:03;;;;;;;384.27;362.60;;;11.50;99.90;;;;;;5056103;28;20207;-81
2021/10/12 04:14:28;;;;;;;392.37;370.37;;;11.50;99.90;;;;;;5056271;28;20260;-82
2021/10/12 04:16:54;;;;;;;364.47;342.93;;;11.40;99.90;;;;;;5055901;28;20407;-81
2021/10/12 04:19:20;;;;;;;334.57;314.50;;;11.40;99.90;;;;;;5037920;28;20172;-81
2021/10/12 04:21:45;;;;;;;353.37;332.47;;;11.30;99.90;;;;;;5038144;28;20176;-82
2021/10/12 04:24:11;;;;;;;346.53;326.27;;;11.30;99.90;;;;;;5038033;28;20259;-82
2021/10/12 04:26:38;;;;;;;354.30;334.17;;;11.30;99.90;;;;;;5055516;28;20248;-81
2021/10/12 04:29:04;;;;;;;373.90;352.65;;;11.30;99.90;;;;;;5055321;28;20552;-82
2021/10/12 04:31:31;;;;;;;352.77;331.87;;;11.30;99.90;;;;;;5055376;28;20189;-82
2021/10/12 04:33:57;;;;;;;323.73;304.60;;;11.30;99.90;;;;;;5054871;28;20399;-82
2021/10/12 04:36:23;;;;;;;330.93;311.40;;;11.30;99.90;;;;;;5055092;28;20650;-82
2021/10/12 04:38:48;;;;;;;329.90;309.90;;;11.30;99.90;;;;;;5036868;28;20254;-82
2021/10/12 04:41:14;;;;;;;334.07;314.47;;;11.30;99.90;;;;;;5054969;28;20164;-82
2021/10/12 04:43:41;;;;;;;349.93;329.67;;;11.30;99.90;;;;;;5055339;28;20636;-81
2021/10/12 04:46:06;;;;;;;353.90;332.85;;;11.40;99.90;;;;;;5037467;28;20930;-82
2021/10/12 04:48:32;;;;;;;362.83;342.10;;;11.40;99.90;;;;;;5055203;28;20207;-82
2021/10/12 04:50:58;;;;;;;384.83;362.87;;;11.50;99.90;;;;;;5055466;28;20455;-82
2021/10/12 04:53:24;;;;;;;401.67;379.27;;;11.50;99.90;;;;;;5037798;28;20173;-81
2021/10/12 04:55:50;;;;;;;358.77;338.33;;;11.40;99.90;;;;;;5037373;28;20181;-82
2021/10/12 04:58:15;;;;;;;353.20;332.47;;;11.40;99.90;;;;;;5056337;28;20430;-82
2021/10/12 05:00:41;;;;;;;345.00;325.03;;;11.40;99.90;;;;;;5059560;28;20890;-82
2021/10/12 05:03:06;;;;;;;351.90;331.70;;;11.40;99.90;;;;;;5059373;28;20247;-82
2021/10/12 05:05:32;;;;;;;383.77;361.60;;;11.40;99.90;;;;;;5058983;28;20172;-82
2021/10/12 05:07:58;;;;;;;355.37;334.80;;;11.40;99.90;;;;;;5058461;28;20691;-82
2021/10/12 05:10:24;;;;;;;387.40;365.57;;;11.40;99.90;;;;;;5058460;28;20902;-82
2021/10/12 05:12:50;;;;;;;371.63;349.50;;;11.40;99.90;;;;;;5058487;28;20219;-82
2021/10/12 05:15:36;;;;;;;319.60;300.13;;;11.40;99.90;;;;;;5058484;28;20161;-82
2021/10/12 05:18:08;;;;;;;328.52;308.95;;;11.30;99.90;;;;;;5040766;28;20779;-82
2021/10/12 05:20:34;;;;;;;324.55;305.13;;;11.30;99.90;;;;;;5058659;28;20145;-81
2021/10/12 05:23:00;;;;;;;315.73;296.77;;;11.30;99.90;;;;;;5040753;28;20636;-82
2021/10/12 05:25:26;;;;;;;358.30;337.47;;;11.30;99.90;;;;;;5058870;28;20512;-83
2021/10/12 05:27:51;;;;;;;348.70;328.47;;;11.40;99.90;;;;;;5041182;28;20196;-82
2021/10/12 05:30:17;;;;;;;357.03;336.97;;;11.40;99.90;;;;;;5040786;28;20192;-82
2021/10/12 05:32:43;;;;;;;363.97;342.80;;;11.40;99.90;;;;;;5058783;28;20536;-82
2021/10/12 05:35:09;;;;;;;326.83;307.13;;;11.40;99.90;;;;;;5059151;28;20252;-83
2021/10/12 05:37:36;;;;;;;329.85;310.50;;;11.40;99.90;;;;;;5058868;28;20240;-83
2021/10/12 05:40:03;;;;;;;304.02;284.92;;;11.40;99.90;;;;;;5059340;28;20187;-83
2021/10/12 05:42:28;;;;;;;360.02;338.60;;;11.40;99.90;;;;;;5058615;28;20176;-82
2021/10/12 05:44:54;;;;;;;342.33;321.57;;;11.40;99.90;;;;;;5059204;28;20168;-82
2021/10/12 05:47:20;;;;;;;330.80;311.27;;;11.40;99.90;;;;;;5059192;28;20188;-83
2021/10/12 05:49:45;;;;;;;337.60;318.30;;;11.40;99.90;;;;;;5058769;28;20177;-82
2021/10/12 05:52:14;;;;;;;326.13;306.83;;;11.40;99.90;;;;;;5057963;28;20238;-81
2021/10/12 05:54:47;;;;;;;335.25;315.95;;;11.40;99.90;;;;;;5057985;28;20180;-82
2021/10/12 05:57:20;;;;;;;346.52;326.38;;;11.30;99.90;;;;;;5058158;28;20594;-83
2021/10/12 05:59:46;;;;;;;345.77;325.35;;;11.30;99.90;;;;;;5058625;28;20145;-83
2021/10/12 06:02:12;;;;;;;317.90;299.10;;;11.30;99.90;;;;;;5058930;28;20169;-83
2021/10/12 06:04:38;;;;;;;294.70;276.90;;;11.20;99.90;;;;;;5040256;28;20192;-83
2021/10/12 06:07:04;;;;;;;295.00;276.87;;;11.20;99.90;;;;;;5057902;28;20160;-82
2021/10/12 06:09:29;;;;;;;323.10;303.87;;;11.30;99.90;;;;;;5058419;28;20223;-83
2021/10/12 06:11:55;;;;;;;328.53;309.23;;;11.30;99.90;;;;;;5058073;28;20231;-83
2021/10/12 06:14:20;;;;;;;330.63;311.60;;;11.30;99.90;;;;;;5058882;28;20188;-82
2021/10/12 06:16:46;;;;;;;303.00;284.73;;;11.30;99.90;;;;;;5058092;28;20218;-81
2021/10/12 06:19:14;;;;;;;303.33;284.03;;;11.30;99.90;;;;;;5058014;28;20172;-82
2021/10/12 06:21:40;;;;;;;309.42;290.65;;;11.30;99.90;;;;;;5058346;28;20172;-83
2021/10/12 06:24:05;;;;;;;332.17;312.73;;;11.30;99.90;;;;;;5057715;28;20238;-83
2021/10/12 06:26:31;;;;;;;308.37;289.63;;;11.20;99.90;;;;;;5058070;28;20245;-82
2021/10/12 06:28:56;;;;;;;334.67;314.20;;;11.30;99.90;;;;;;5057282;28;20224;-82
2021/10/12 06:31:25;;;;;;;334.87;315.70;;;11.20;99.90;;;;;;5038752;28;20199;-82
2021/10/12 06:33:51;;;;;;;324.85;305.63;;;11.20;99.90;;;;;;5057535;28;20164;-83
2021/10/12 06:36:17;;;;;;;308.00;289.37;;;11.20;99.90;;;;;;5039278;28;20654;-82
2021/10/12 06:38:43;;;;;;;326.08;307.02;;;11.30;99.90;;;;;;5058008;28;20262;-82
2021/10/12 06:41:10;;;;;;;338.23;317.17;;;11.30;99.90;;;;;;5057935;28;20250;-82
2021/10/12 06:43:38;;;;;;;294.48;276.20;;;11.30;99.90;;;;;;5057927;28;20161;-83
2021/10/12 06:46:03;;;;;;;299.83;281.27;;;11.30;99.90;;;;;;5057633;28;20161;-83
2021/10/12 06:48:29;;;;;;;315.73;297.20;;;11.30;99.90;;;;;;5039132;28;20214;-83
2021/10/12 06:50:54;;;;;;;341.33;321.07;;;11.30;99.90;;;;;;5057090;28;20215;-83
2021/10/12 06:53:20;;;;;;;360.57;339.43;;;11.40;99.90;;;;;;5057314;28;20192;-82
2021/10/12 06:55:46;;;;;;;341.37;322.00;;;11.40;99.90;;;;;;5057407;28;20230;-83
2021/10/12 06:58:12;;;;;;;340.97;320.97;;;11.40;99.90;;;;;;5057880;28;20192;-83
2021/10/12 07:00:37;;;;;;;313.73;294.57;;;11.40;99.90;;;;;;5057082;28;20171;-83
2021/10/12 07:03:03;;;;;;;309.63;290.80;;;11.40;99.90;;;;;;5039455;28;20283;-83
2021/10/12 07:05:29;;;;;;;329.27;309.90;;;11.30;99.90;;;;;;5102874;23;20547;-88
2021/10/12 07:07:54;;;;;;;310.77;291.50;;;11.30;99.90;;;;;;5059251;28;20220;-85
2021/10/12 07:10:20;;;;;;;287.30;269.87;;;11.30;99.90;;;;;;5060968;28;20161;-86
2021/10/12 07:12:46;;;;;;;326.40;307.67;;;11.40;99.90;;;;;;5061026;28;20741;-84
2021/10/12 07:15:11;;;;;;;316.33;297.63;;;11.30;99.90;;;;;;5059036;28;20214;-84
2021/10/12 07:17:38;;;;;;;326.90;307.57;;;11.30;99.90;;;;;;5057467;28;20199;-85
2021/10/12 07:20:04;;;;;;;334.02;314.55;;;11.40;99.90;;;;;;5058883;28;20168;-84
2021/10/12 07:22:31;;;;;;;328.50;309.13;;;11.40;99.90;;;;;;5058023;28;20169;-84
2021/10/12 07:24:57;;;;;;;351.13;330.83;;;11.30;99.90;;;;;;5058113;28;20192;-84
2021/10/12 07:27:23;;;;;;;343.45;323.38;;;11.40;99.90;;;;;;5059761;28;20196;-84
2021/10/12 07:29:51;;;;;;;320.70;302.33;;;11.40;99.90;;;;;;5058686;28;20174;-84
2021/10/12 07:32:17;;;;;;;314.85;296.30;;;11.40;99.90;;;;;;5056053;28;20616;-82
2021/10/12 07:34:43;;;;;;;319.67;300.92;;;11.40;99.90;;;;;;5060110;28;20706;-83
2021/10/12 07:37:09;;;;;;;347.17;327.47;;;11.40;99.90;;;;;;5059994;28;20193;-81
2021/10/12 07:39:34;;;;;;;334.43;314.63;;;11.40;99.90;;;;;;5057035;28;20183;-82
2021/10/12 07:42:05;;;;;;;298.37;280.93;;;11.40;99.90;;;;;;5055888;28;20178;-82
2021/10/12 07:44:30;;;;;;;343.08;322.85;;;11.40;99.90;;;;;;5057348;28;20165;-83
2021/10/12 07:46:56;;;;;;;304.30;286.03;;;11.40;99.90;;;;;;5059126;28;20177;-83
2021/10/12 07:49:22;;;;;;;290.40;272.57;;;11.40;99.90;;;;;;5059382;28;20414;-83
2021/10/12 07:51:47;;;;;;;268.10;250.37;;;11.40;99.90;;;;;;5059072;28;20244;-83
2021/10/12 07:54:19;;;;;;;273.73;256.57;;;11.40;99.90;;;;;;5056046;28;20168;-83
2021/10/12 07:56:45;;;;;;;286.40;268.80;;;11.40;99.90;;;;;;5059328;28;20145;-83
2021/10/12 07:59:12;;;;;;;255.20;239.07;;;11.40;99.90;;;;;;5057205;28;20651;-84
2021/10/12 08:01:38;;;;;;;248.75;232.15;;;11.40;99.90;;;;;;5057804;28;20160;-83
2021/10/12 08:04:04;;;;;;;293.08;274.92;;;11.40;99.90;;;;;;5056681;28;20575;-83
2021/10/12 08:06:31;;;;;;;267.25;249.82;;;11.50;99.90;;;;;;5058676;28;20188;-82
2021/10/12 08:08:57;;;;;;;284.42;266.77;;;11.60;99.90;;;;;;5057004;28;20239;-82
2021/10/12 08:11:25;;;;;;;233.63;217.75;;;11.50;99.90;;;;;;5058778;28;20212;-82
2021/10/12 08:13:54;;;;;;;250.55;233.63;;;11.60;99.90;;;;;;5059466;28;20163;-82
2021/10/12 08:16:26;;;;;;;279.33;261.63;;;11.60;99.90;;;;;;5059348;28;20168;-82
2021/10/12 08:18:53;;;;;;;253.00;236.25;;;11.70;99.90;;;;;;5058856;28;20191;-82
2021/10/12 08:21:19;;;;;;;260.73;243.68;;;11.70;99.90;;;;;;5059749;28;20203;-82
2021/10/12 08:23:44;;;;;;;248.83;232.87;;;11.80;99.90;;;;;;5059599;28;20173;-83
2021/10/12 08:26:10;;;;;;;257.83;240.87;;;11.80;99.90;;;;;;5057414;28;20168;-82
2021/10/12 08:28:36;;;;;;;241.43;225.70;;;11.80;99.90;;;;;;5126579;22;20201;-80
2021/10/12 08:43:39;;;;;;;279.88;262.80;;;11.80;99.90;;;;;;5319498;22;20221;-81
2021/10/12 08:46:05;;;;;;;266.23;249.68;;;11.80;99.90;;;;;;5061289;28;20520;-80
2021/10/12 08:48:33;;;;;;;297.13;279.35;;;11.80;99.90;;;;;;5059849;28;20562;-81
2021/10/12 08:51:05;;;;;;;267.80;249.88;;;11.80;99.90;;;;;;5061355;28;20212;-81
2021/10/12 08:53:32;;;;;;;292.20;274.58;;;11.90;99.90;;;;;;5061100;28;20168;-80
2021/10/12 08:55:59;;;;;;;287.25;269.60;;;11.80;99.90;;;;;;5060337;28;20575;-82
2021/10/12 08:58:26;;;;;;;286.63;269.08;;;11.80;99.90;;;;;;5060160;28;20230;-81
2021/10/12 09:01:04;;;;;;;261.67;244.52;;;11.80;99.90;;;;;;5060646;28;20570;-80
2021/10/12 09:04:17;;;;;;;278.42;261.65;;;11.80;99.90;;;;;;5060386;28;20171;-80
2021/10/12 09:06:36;;;;;;;247.50;231.80;;;11.80;99.90;;;;;;5059475;28;20184;-81
2021/10/12 09:09:04;;;;;;;260.40;243.90;;;11.80;99.90;;;;;;5060755;28;20192;-80
2021/10/12 09:11:32;;;;;;;255.75;239.38;;;11.80;99.90;;;;;;5059803;28;20193;-80
2021/10/12 09:14:04;;;;;;;211.90;196.88;;;11.80;99.90;;;;;;5058615;28;20180;-80
2021/10/12 09:16:37;;;;;;;292.58;274.63;;;11.80;99.90;;;;;;5059694;28;20167;-80
2021/10/12 09:19:12;;;;;;;263.27;246.75;;;11.80;99.90;;;;;;5060075;28;20246;-80
2021/10/12 09:21:44;;;;;;;270.23;253.13;;;11.80;99.90;;;;;;5059984;28;20503;-80
2021/10/12 09:24:11;;;;;;;282.85;265.80;;;11.80;99.90;;;;;;5059432;28;20244;-80
2021/10/12 09:26:42;;;;;;;249.73;233.75;;;11.80;99.90;;;;;;5059259;28;20501;-81
2021/10/12 09:29:27;;;;;;;266.63;250.20;;;11.80;99.90;;;;;;5061095;28;20181;-82
2021/10/12 09:31:58;;;;;;;273.08;256.35;;;11.80;99.90;;;;;;5062806;28;20181;-82
2021/10/12 09:34:24;;;;;;;280.35;263.10;;;11.80;99.90;;;;;;5062339;28;20211;-82
2021/10/12 09:36:52;;;;;;;288.85;271.50;;;11.90;99.90;;;;;;5062863;28;20161;-83
2021/10/12 09:39:45;;;;;;;257.23;240.35;;;11.90;99.90;;;;;;5062297;28;20165;-81
2021/10/12 09:42:16;;;;;;;253.15;236.98;;;11.90;99.90;;;;;;5059544;28;20152;-81
2021/10/12 09:44:53;;;;;;;266.08;249.45;;;11.90;99.90;;;;;;5057464;28;20184;-80
2021/10/12 09:47:19;;;;;;;244.38;228.45;;;12.00;99.90;;;;;;5059733;28;20277;-81
2021/10/12 09:49:46;;;;;;;262.02;245.35;;;12.00;99.90;;;;;;5059883;28;20157;-81
2021/10/12 09:52:16;;;;;;;302.05;283.88;;;11.90;99.90;;;;;;5059274;28;20224;-81
2021/10/12 09:54:48;;;;;;;276.17;259.17;;;11.90;99.90;;;;;;5059862;28;20148;-81
2021/10/12 09:57:16;;;;;;;259.52;241.73;;;11.90;99.90;;;;;;5059710;28;20181;-82
2021/10/12 09:59:42;;;;;;;297.15;279.00;;;12.00;99.90;;;;;;5059448;28;20172;-81
2021/10/12 10:02:19;;;;;;;256.33;239.93;;;12.00;99.90;;;;;;5058832;28;20160;-81
2021/10/12 10:04:46;;;;;;;286.17;268.30;;;12.00;99.90;;;;;;5059161;28;20371;-81
2021/10/12 10:07:16;;;;;;;289.85;272.35;;;12.10;99.90;;;;;;5058897;28;20543;-81
2021/10/12 10:09:44;;;;;;;274.05;257.10;;;12.10;99.90;;;;;;5058094;28;20176;-81
2021/10/12 10:12:10;;;;;;;256.80;240.55;;;12.20;99.90;;;;;;5057498;28;20679;-81
2021/10/12 10:14:39;;;;;;;251.98;236.18;;;12.20;99.90;;;;;;5059481;28;20168;-81
2021/10/12 10:17:06;;;;;;;288.10;270.27;;;12.20;99.90;;;;;;5057845;28;20183;-82
2021/10/12 10:19:40;;;;;;;304.98;286.30;;;12.10;99.90;;;;;;5059604;28;20231;-82
2021/10/12 10:22:15;;;;;;;271.50;254.50;;;12.20;99.90;;;;;;5059263;28;20576;-82
2021/10/12 10:25:28;;;;;;;259.40;243.10;;;12.10;99.90;;;;;;5061360;28;20179;-83
2021/10/12 10:28:24;;;;;;;264.45;247.80;;;12.10;99.90;;;;;;5055259;28;20231;-83
2021/10/12 10:30:53;;;;;;;253.63;237.02;;;12.10;99.90;;;;;;5058663;28;20682;-84
2021/10/12 10:33:34;;;;;;;271.30;254.07;;;12.10;99.90;;;;;;5060867;28;20282;-84
2021/10/12 10:36:15;;;;;;;267.50;250.53;;;12.10;99.90;;;;;;5059517;28;20632;-84
2021/10/12 10:39:07;;;;;;;262.67;245.70;;;12.10;99.90;;;;;;5060666;28;20447;-84
2021/10/12 10:41:43;;;;;;;263.02;245.57;;;12.10;99.90;;;;;;5060987;28;20145;-84
2021/10/12 10:44:38;;;;;;;269.83;253.02;;;12.00;99.90;;;;;;5064701;28;20183;-84
2021/10/12 10:53:44;;;;;;;281.10;263.85;;;12.30;99.90;;;;;;5059570;28;20188;-84
2021/10/12 10:56:12;;;;;;;273.08;256.02;;;12.40;99.90;;;;;;5060868;28;20161;-84
2021/10/12 10:58:51;;;;;;;;;;;;;;;;;;;;;
2021/10/12 11:02:03;;;;;;;305.80;287.17;;;12.60;99.90;;;;;;5061181;28;20455;-84
2021/10/12 11:04:43;;;;;;;262.65;245.82;;;12.70;99.90;;;;;;5059340;28;20411;-83
2021/10/12 11:07:19;;;;;;;254.53;237.97;;;12.70;99.90;;;;;;5061107;28;20192;-83
2021/10/12 11:09:45;;;;;;;279.67;262.50;;;12.70;99.90;;;;;;5063448;28;20498;-83
2021/10/12 11:12:31;;;;;;;242.60;226.57;;;12.70;99.90;;;;;;5059634;28;20478;-83
2021/10/12 11:15:06;;;;;;;239.60;223.47;;;12.70;99.90;;;;;;5063285;28;20427;-83
2021/10/12 11:17:32;;;;;;;267.92;250.85;;;12.70;99.90;;;;;;5058400;28;20414;-81
2021/10/12 11:20:12;;;;;;;289.10;271.00;;;12.70;99.90;;;;;;5058438;28;20175;-80
2021/10/12 11:22:53;;;;;;;262.47;245.43;;;12.80;99.90;;;;;;5057920;28;20383;-81
2021/10/12 11:25:32;;;;;;;288.85;271.52;;;12.90;99.90;;;;;;5061213;28;20819;-82
2021/10/12 11:28:10;;;;;;;243.25;227.52;;;12.90;99.90;;;;;;5060556;28;20278;-81
2021/10/12 11:30:37;;;;;;;268.33;251.18;;;13.00;99.90;;;;;;5059181;28;20145;-81
2021/10/12 11:33:27;;;;;;;279.23;262.13;;;12.90;99.90;;;;;;5056601;28;20187;-81
2021/10/12 11:35:57;;;;;;;276.97;259.90;;;12.90;99.90;;;;;;5057891;28;20380;-81
2021/10/12 11:38:29;;;;;;;287.60;270.37;;;12.90;99.90;;;;;;5057163;28;20463;-81
2021/10/12 11:40:58;;;;;;;298.80;280.13;;;12.80;99.90;;;;;;5058378;28;20762;-82
2021/10/12 11:43:32;;;;;;;321.95;302.90;;;12.80;99.90;;;;;;5057769;28;20624;-82
2021/10/12 11:46:02;;;;;;;285.17;267.83;;;12.70;99.90;;;;;;5056654;28;20188;-82
2021/10/12 11:48:33;;;;;;;312.83;294.50;;;12.70;99.90;;;;;;5057482;28;20426;-83
2021/10/12 11:51:35;;;;;;;291.45;273.23;;;12.70;99.90;;;;;;5056728;28;20443;-82
2021/10/12 11:54:01;;;;;;;291.87;274.30;;;12.70;99.90;;;;;;5058264;28;20167;-81
2021/10/12 11:56:37;;;;;;;277.47;260.60;;;12.70;99.90;;;;;;5057863;28;20797;-81
2021/10/12 11:59:05;;;;;;;261.60;244.60;;;12.70;99.90;;;;;;5057847;28;20234;-82
2021/10/12 12:01:43;;;;;;;269.40;252.43;;;12.80;99.90;;;;;;5056823;28;20403;-82
2021/10/12 12:04:37;;;;;;;247.07;231.33;;;12.80;99.90;;;;;;5055966;28;20778;-81
2021/10/12 12:07:09;;;;;;;276.48;259.33;;;12.80;99.90;;;;;;5058748;28;20389;-82
2021/10/12 12:09:45;;;;;;;284.47;266.13;;;12.70;99.90;;;;;;5062006;28;20159;-81
2021/10/12 12:12:13;;;;;;;262.98;246.48;;;12.80;99.90;;;;;;5061947;28;20509;-82
2021/10/12 12:14:40;;;;;;;266.37;248.97;;;12.70;99.90;;;;;;5063110;28;20164;-82
2021/10/12 12:17:20;;;;;;;280.02;262.30;;;12.70;99.90;;;;;;5062739;28;20410;-83
2021/10/12 12:19:55;;;;;;;251.93;235.77;;;12.80;99.90;;;;;;5064280;28;20190;-83
2021/10/12 12:22:29;;;;;;;265.97;249.40;;;12.80;99.90;;;;;;5063912;28;20406;-85
2021/10/12 12:25:01;;;;;;;272.63;255.67;;;12.90;99.90;;;;;;5067819;28;20390;-85
2021/10/12 12:27:34;;;;;;;321.33;302.17;;;13.00;99.90;;;;;;5068213;28;20429;-83
2021/10/12 12:30:09;;;;;;;268.42;251.00;;;13.10;99.90;;;;;;5069129;28;20149;-83
2021/10/12 12:32:37;;;;;;;258.53;241.80;;;13.20;99.90;;;;;;5068241;28;20168;-83
2021/10/12 12:35:08;;;;;;;273.13;255.32;;;13.30;99.90;;;;;;5066564;28;20446;-84
2021/10/12 12:37:37;;;;;;;237.27;221.35;;;13.30;99.90;;;;;;5068252;28;20270;-84
2021/10/12 12:40:27;;;;;;;264.83;248.07;;;13.30;99.90;;;;;;5069884;28;20624;-86